Terminal Aerodrome Forecast
Issued by NWS Boise, ID

Home | Current Version | Previous Version | Text Only | Print | Product List | Glossary On
Versions: 1 2 3 4 5 6 7 8 9 10 11 12 13 14 15 16 17 18 19 20 21 22 23 24 25 26 27 28 29 30 31 32 33 34
000
FTUS45 KBOI 292103 AAB
TAFBNO
TAF AMD
KBNO 292103Z 2921/3018 VRB08G18KT P6SM VCTS FEW080CB BKN120
     FM300300 30012KT P6SM VCSH SCT080 BKN120=

USA.gov is the U.S. government's official web portal to all federal, state and local government web resources and services.